sensor_id;sensor_type;location;lat;lon;timestamp;pressure;altitude;pressure_sealevel;temperature;humidity
47080;BME280;33067;49.296;14.470;2023-03-26T00:00:45;96263.28;;;9.98;39.65
47080;BME280;33067;49.296;14.470;2023-03-26T00:03:11;96266.28;;;10.08;39.86
47080;BME280;33067;49.296;14.470;2023-03-26T00:05:36;96267.63;;;10.17;39.89
47080;BME280;33067;49.296;14.470;2023-03-26T00:08:01;96267.13;;;9.96;39.90
47080;BME280;33067;49.296;14.470;2023-03-26T00:10:26;96262.12;;;10.01;39.85
47080;BME280;33067;49.296;14.470;2023-03-26T00:12:51;96262.11;;;10.05;39.72
47080;BME280;33067;49.296;14.470;2023-03-26T00:15:17;96262.36;;;10.07;39.73
47080;BME280;33067;49.296;14.470;2023-03-26T00:17:42;96263.58;;;10.02;39.71
47080;BME280;33067;49.296;14.470;2023-03-26T00:20:08;96261.89;;;10.03;39.76
47080;BME280;33067;49.296;14.470;2023-03-26T00:22:33;96262.01;;;10.14;39.58
47080;BME280;33067;49.296;14.470;2023-03-26T00:24:59;96262.40;;;10.12;39.62
47080;BME280;33067;49.296;14.470;2023-03-26T00:27:24;96273.60;;;10.24;39.71
47080;BME280;33067;49.296;14.470;2023-03-26T00:29:49;96274.80;;;10.17;39.51
47080;BME280;33067;49.296;14.470;2023-03-26T00:32:15;96266.09;;;10.15;39.67
47080;BME280;33067;49.296;14.470;2023-03-26T00:34:40;96265.00;;;10.57;39.40
47080;BME280;33067;49.296;14.470;2023-03-26T00:37:06;96260.78;;;10.03;39.44
47080;BME280;33067;49.296;14.470;2023-03-26T00:39:31;96259.79;;;10.49;39.47
47080;BME280;33067;49.296;14.470;2023-03-26T00:41:57;96254.52;;;9.88;39.84
47080;BME280;33067;49.296;14.470;2023-03-26T00:44:22;96257.06;;;10.26;39.63
47080;BME280;33067;49.296;14.470;2023-03-26T00:46:47;96254.53;;;10.21;39.25
47080;BME280;33067;49.296;14.470;2023-03-26T00:49:13;96254.69;;;10.30;39.67
47080;BME280;33067;49.296;14.470;2023-03-26T00:51:38;96251.16;;;10.49;39.41
47080;BME280;33067;49.296;14.470;2023-03-26T00:54:04;96254.25;;;10.40;39.17
47080;BME280;33067;49.296;14.470;2023-03-26T00:56:29;96255.64;;;10.72;39.05
47080;BME280;33067;49.296;14.470;2023-03-26T00:58:54;96257.10;;;10.50;39.33
47080;BME280;33067;49.296;14.470;2023-03-26T01:01:22;96251.62;;;10.50;39.08
47080;BME280;33067;49.296;14.470;2023-03-26T01:03:45;96246.13;;;10.34;39.18
47080;BME280;33067;49.296;14.470;2023-03-26T01:06:12;96241.77;;;10.58;38.86
47080;BME280;33067;49.296;14.470;2023-03-26T01:08:38;96238.57;;;10.70;38.98
47080;BME280;33067;49.296;14.470;2023-03-26T01:11:04;96236.16;;;10.55;38.82
47080;BME280;33067;49.296;14.470;2023-03-26T01:13:27;96235.04;;;10.68;38.94
47080;BME280;33067;49.296;14.470;2023-03-26T01:15:52;96237.21;;;10.30;39.22
47080;BME280;33067;49.296;14.470;2023-03-26T01:18:20;96235.56;;;10.35;39.10
47080;BME280;33067;49.296;14.470;2023-03-26T01:20:43;96238.62;;;10.28;39.23
47080;BME280;33067;49.296;14.470;2023-03-26T01:23:08;96238.34;;;10.38;39.12
47080;BME280;33067;49.296;14.470;2023-03-26T01:25:37;96239.42;;;10.84;38.76
47080;BME280;33067;49.296;14.470;2023-03-26T01:27:59;96234.53;;;10.68;38.62
47080;BME280;33067;49.296;14.470;2023-03-26T01:30:29;96235.35;;;10.39;38.90
47080;BME280;33067;49.296;14.470;2023-03-26T01:32:56;96232.44;;;10.76;38.82
47080;BME280;33067;49.296;14.470;2023-03-26T01:35:23;96235.59;;;10.39;39.02
47080;BME280;33067;49.296;14.470;2023-03-26T01:37:47;96236.47;;;10.42;39.00
47080;BME280;33067;49.296;14.470;2023-03-26T01:40:10;96238.36;;;10.49;38.72
47080;BME280;33067;49.296;14.470;2023-03-26T01:42:35;96242.06;;;10.63;38.50
47080;BME280;33067;49.296;14.470;2023-03-26T01:45:00;96255.60;;;10.29;39.29
47080;BME280;33067;49.296;14.470;2023-03-26T01:47:22;96257.06;;;10.63;39.28
47080;BME280;33067;49.296;14.470;2023-03-26T01:49:47;96257.48;;;10.65;39.13
47080;BME280;33067;49.296;14.470;2023-03-26T01:52:15;96256.38;;;10.70;39.18
47080;BME280;33067;49.296;14.470;2023-03-26T01:54:38;96254.03;;;10.91;38.91
47080;BME280;33067;49.296;14.470;2023-03-26T01:57:11;96255.75;;;10.80;39.38
47080;BME280;33067;49.296;14.470;2023-03-26T01:59:41;96254.70;;;10.98;38.97
47080;BME280;33067;49.296;14.470;2023-03-26T02:01:59;96254.44;;;11.11;38.74
47080;BME280;33067;49.296;14.470;2023-03-26T02:04:23;96255.69;;;10.85;38.76
47080;BME280;33067;49.296;14.470;2023-03-26T02:06:48;96255.53;;;10.87;38.85
47080;BME280;33067;49.296;14.470;2023-03-26T02:09:13;96252.73;;;10.84;38.90
47080;BME280;33067;49.296;14.470;2023-03-26T02:13:01;96253.22;;;11.40;38.18
47080;BME280;33067;49.296;14.470;2023-03-26T02:15:26;96258.59;;;11.24;38.98
47080;BME280;33067;49.296;14.470;2023-03-26T02:17:52;96258.63;;;11.07;38.82
47080;BME280;33067;49.296;14.470;2023-03-26T02:20:18;96256.71;;;10.88;39.23
47080;BME280;33067;49.296;14.470;2023-03-26T02:22:42;96258.43;;;10.51;39.50
47080;BME280;33067;49.296;14.470;2023-03-26T02:25:08;96255.34;;;10.74;39.12
47080;BME280;33067;49.296;14.470;2023-03-26T02:27:33;96258.26;;;10.72;39.25
47080;BME280;33067;49.296;14.470;2023-03-26T02:29:58;96260.46;;;10.61;39.44
47080;BME280;33067;49.296;14.470;2023-03-26T02:32:23;96255.06;;;10.50;39.58
47080;BME280;33067;49.296;14.470;2023-03-26T02:34:49;96251.87;;;9.97;39.79
47080;BME280;33067;49.296;14.470;2023-03-26T02:37:14;96247.33;;;10.24;39.77
47080;BME280;33067;49.296;14.470;2023-03-26T02:39:40;96243.99;;;10.09;39.92
47080;BME280;33067;49.296;14.470;2023-03-26T02:42:05;96240.96;;;10.31;39.53
47080;BME280;33067;49.296;14.470;2023-03-26T02:44:30;96245.39;;;10.30;39.54
47080;BME280;33067;49.296;14.470;2023-03-26T02:46:56;96246.37;;;10.23;39.76
47080;BME280;33067;49.296;14.470;2023-03-26T02:49:21;96243.24;;;10.50;39.68
47080;BME280;33067;49.296;14.470;2023-03-26T02:51:46;96241.67;;;10.50;39.40
47080;BME280;33067;49.296;14.470;2023-03-26T02:54:12;96237.18;;;10.27;39.73
47080;BME280;33067;49.296;14.470;2023-03-26T02:56:37;96239.55;;;10.46;39.37
47080;BME280;33067;49.296;14.470;2023-03-26T02:59:03;96236.53;;;9.57;40.48
47080;BME280;33067;49.296;14.470;2023-03-26T03:01:28;96239.43;;;9.94;40.23
47080;BME280;33067;49.296;14.470;2023-03-26T03:03:53;96245.83;;;10.22;39.83
47080;BME280;33067;49.296;14.470;2023-03-26T03:06:19;96242.65;;;10.29;40.11
47080;BME280;33067;49.296;14.470;2023-03-26T03:08:45;96240.11;;;10.27;39.89
47080;BME280;33067;49.296;14.470;2023-03-26T03:11:11;96239.56;;;10.29;39.93
47080;BME280;33067;49.296;14.470;2023-03-26T03:13:35;96236.83;;;10.35;39.73
47080;BME280;33067;49.296;14.470;2023-03-26T03:16:00;96233.61;;;10.55;39.52
47080;BME280;33067;49.296;14.470;2023-03-26T03:18:26;96230.85;;;10.83;39.28
47080;BME280;33067;49.296;14.470;2023-03-26T03:20:51;96228.94;;;10.79;39.37
47080;BME280;33067;49.296;14.470;2023-03-26T03:23:17;96231.22;;;10.68;39.30
47080;BME280;33067;49.296;14.470;2023-03-26T03:25:42;96227.50;;;10.53;39.29
47080;BME280;33067;49.296;14.470;2023-03-26T03:28:07;96222.59;;;10.96;39.02
47080;BME280;33067;49.296;14.470;2023-03-26T03:30:33;96224.18;;;10.94;38.95
47080;BME280;33067;49.296;14.470;2023-03-26T03:32:58;96227.41;;;11.29;38.79
47080;BME280;33067;49.296;14.470;2023-03-26T03:35:23;96221.61;;;11.50;38.50
47080;BME280;33067;49.296;14.470;2023-03-26T03:37:49;96221.56;;;11.09;38.57
47080;BME280;33067;49.296;14.470;2023-03-26T03:40:14;96222.89;;;11.15;38.34
47080;BME280;33067;49.296;14.470;2023-03-26T03:42:39;96222.33;;;11.16;38.34
47080;BME280;33067;49.296;14.470;2023-03-26T03:45:06;96221.41;;;11.50;38.33
47080;BME280;33067;49.296;14.470;2023-03-26T03:47:30;96227.19;;;11.89;37.97
47080;BME280;33067;49.296;14.470;2023-03-26T03:49:56;96222.66;;;11.27;38.18
47080;BME280;33067;49.296;14.470;2023-03-26T03:52:21;96226.58;;;11.40;37.99
47080;BME280;33067;49.296;14.470;2023-03-26T03:54:46;96225.69;;;11.49;38.18
47080;BME280;33067;49.296;14.470;2023-03-26T03:57:12;96226.95;;;11.62;37.95
47080;BME280;33067;49.296;14.470;2023-03-26T03:59:37;96225.44;;;11.26;38.35
47080;BME280;33067;49.296;14.470;2023-03-26T04:02:02;96221.26;;;11.13;37.97
47080;BME280;33067;49.296;14.470;2023-03-26T04:04:28;96221.88;;;11.22;37.81
47080;BME280;33067;49.296;14.470;2023-03-26T04:06:53;96224.50;;;11.09;38.41
47080;BME280;33067;49.296;14.470;2023-03-26T04:09:18;96226.16;;;11.28;38.71
47080;BME280;33067;49.296;14.470;2023-03-26T04:11:44;96218.52;;;11.19;38.39
47080;BME280;33067;49.296;14.470;2023-03-26T04:14:09;96217.94;;;11.37;38.06
47080;BME280;33067;49.296;14.470;2023-03-26T04:16:34;96214.11;;;11.24;38.02
47080;BME280;33067;49.296;14.470;2023-03-26T04:19:00;96221.22;;;10.80;38.65
47080;BME280;33067;49.296;14.470;2023-03-26T04:21:25;96222.29;;;11.13;38.20
47080;BME280;33067;49.296;14.470;2023-03-26T04:23:50;96226.40;;;10.79;38.70
47080;BME280;33067;49.296;14.470;2023-03-26T04:26:17;96225.72;;;10.62;38.64
47080;BME280;33067;49.296;14.470;2023-03-26T04:28:44;96222.92;;;11.03;38.12
47080;BME280;33067;49.296;14.470;2023-03-26T04:31:09;96225.70;;;10.57;38.69
47080;BME280;33067;49.296;14.470;2023-03-26T04:33:33;96223.07;;;10.53;38.65
47080;BME280;33067;49.296;14.470;2023-03-26T04:35:58;96220.86;;;10.59;38.50
47080;BME280;33067;49.296;14.470;2023-03-26T04:38:23;96222.33;;;10.51;38.60
47080;BME280;33067;49.296;14.470;2023-03-26T04:40:48;96216.23;;;10.36;38.61
47080;BME280;33067;49.296;14.470;2023-03-26T04:43:15;96217.36;;;10.53;38.50
47080;BME280;33067;49.296;14.470;2023-03-26T04:45:39;96214.91;;;10.07;38.79
47080;BME280;33067;49.296;14.470;2023-03-26T04:48:05;96217.40;;;10.24;38.73
47080;BME280;33067;49.296;14.470;2023-03-26T04:50:29;96218.89;;;10.35;38.69
47080;BME280;33067;49.296;14.470;2023-03-26T04:52:55;96214.16;;;10.58;38.28
47080;BME280;33067;49.296;14.470;2023-03-26T04:55:23;96214.00;;;10.61;38.66
47080;BME280;33067;49.296;14.470;2023-03-26T04:57:51;96215.51;;;10.74;38.21
47080;BME280;33067;49.296;14.470;2023-03-26T05:00:13;96212.43;;;10.64;38.26
47080;BME280;33067;49.296;14.470;2023-03-26T05:02:36;96210.94;;;10.83;37.98
47080;BME280;33067;49.296;14.470;2023-03-26T05:05:02;96213.16;;;10.64;38.20
47080;BME280;33067;49.296;14.470;2023-03-26T05:07:27;96213.79;;;10.99;38.24
47080;BME280;33067;49.296;14.470;2023-03-26T05:09:52;96211.21;;;11.00;37.84
47080;BME280;33067;49.296;14.470;2023-03-26T05:12:18;96211.75;;;10.97;37.93
47080;BME280;33067;49.296;14.470;2023-03-26T05:14:43;96209.21;;;11.12;37.81
47080;BME280;33067;49.296;14.470;2023-03-26T05:17:13;96210.63;;;10.92;37.88
47080;BME280;33067;49.296;14.470;2023-03-26T05:19:34;96206.05;;;11.24;37.56
47080;BME280;33067;49.296;14.470;2023-03-26T05:21:59;96204.15;;;11.37;37.46
47080;BME280;33067;49.296;14.470;2023-03-26T05:24:25;96205.31;;;11.48;37.09
47080;BME280;33067;49.296;14.470;2023-03-26T05:26:51;96204.21;;;11.65;36.90
47080;BME280;33067;49.296;14.470;2023-03-26T05:29:16;96199.72;;;11.64;37.06
47080;BME280;33067;49.296;14.470;2023-03-26T05:31:41;96202.34;;;11.42;37.04
47080;BME280;33067;49.296;14.470;2023-03-26T05:34:06;96202.64;;;11.36;37.27
47080;BME280;33067;49.296;14.470;2023-03-26T05:36:31;96200.93;;;11.13;37.23
47080;BME280;33067;49.296;14.470;2023-03-26T05:38:57;96200.75;;;10.75;37.10
47080;BME280;33067;49.296;14.470;2023-03-26T05:41:22;96198.79;;;11.48;36.76
47080;BME280;33067;49.296;14.470;2023-03-26T05:43:47;96199.00;;;11.63;36.65
47080;BME280;33067;49.296;14.470;2023-03-26T05:46:14;96198.24;;;11.76;36.68
47080;BME280;33067;49.296;14.470;2023-03-26T05:48:38;96200.05;;;11.73;36.62
47080;BME280;33067;49.296;14.470;2023-03-26T05:51:04;96198.76;;;11.80;36.60
47080;BME280;33067;49.296;14.470;2023-03-26T05:53:29;96199.31;;;12.10;36.37
47080;BME280;33067;49.296;14.470;2023-03-26T05:55:54;96195.42;;;11.97;36.79
47080;BME280;33067;49.296;14.470;2023-03-26T05:58:20;96191.94;;;11.98;36.84
47080;BME280;33067;49.296;14.470;2023-03-26T06:00:45;96194.41;;;11.90;36.84
47080;BME280;33067;49.296;14.470;2023-03-26T06:03:10;96193.32;;;11.94;37.20
47080;BME280;33067;49.296;14.470;2023-03-26T06:05:36;96193.98;;;12.10;36.62
47080;BME280;33067;49.296;14.470;2023-03-26T06:08:01;96195.35;;;11.84;36.79
47080;BME280;33067;49.296;14.470;2023-03-26T06:10:26;96195.36;;;12.13;36.58
47080;BME280;33067;49.296;14.470;2023-03-26T06:12:52;96198.06;;;12.04;36.81
47080;BME280;33067;49.296;14.470;2023-03-26T06:15:17;96199.60;;;12.30;36.34
47080;BME280;33067;49.296;14.470;2023-03-26T06:17:42;96196.21;;;12.13;36.74
47080;BME280;33067;49.296;14.470;2023-03-26T06:20:09;96192.29;;;12.17;36.89
47080;BME280;33067;49.296;14.470;2023-03-26T06:22:33;96190.85;;;12.29;37.07
47080;BME280;33067;49.296;14.470;2023-03-26T06:24:58;96193.58;;;12.11;37.96
47080;BME280;33067;49.296;14.470;2023-03-26T06:27:24;96193.33;;;11.97;38.61
47080;BME280;33067;49.296;14.470;2023-03-26T06:29:49;96195.49;;;11.78;38.10
47080;BME280;33067;49.296;14.470;2023-03-26T06:32:14;96194.76;;;11.98;38.10
47080;BME280;33067;49.296;14.470;2023-03-26T06:34:40;96192.92;;;12.10;38.03
47080;BME280;33067;49.296;14.470;2023-03-26T06:37:06;96194.59;;;12.24;37.75
47080;BME280;33067;49.296;14.470;2023-03-26T06:39:31;96192.70;;;12.17;37.42
47080;BME280;33067;49.296;14.470;2023-03-26T06:41:56;96188.90;;;12.15;37.23
47080;BME280;33067;49.296;14.470;2023-03-26T06:44:22;96180.36;;;11.85;37.91
47080;BME280;33067;49.296;14.470;2023-03-26T06:46:47;96178.33;;;11.75;37.29
47080;BME280;33067;49.296;14.470;2023-03-26T06:49:12;96175.86;;;12.13;37.06
47080;BME280;33067;49.296;14.470;2023-03-26T06:51:37;96167.44;;;12.08;36.87
47080;BME280;33067;49.296;14.470;2023-03-26T06:54:03;96162.95;;;12.07;36.51
47080;BME280;33067;49.296;14.470;2023-03-26T06:56:28;96160.86;;;11.84;36.98
47080;BME280;33067;49.296;14.470;2023-03-26T06:58:53;96158.39;;;11.89;37.13
47080;BME280;33067;49.296;14.470;2023-03-26T07:01:19;96158.99;;;12.70;36.33
47080;BME280;33067;49.296;14.470;2023-03-26T07:03:44;96156.14;;;12.52;36.32
47080;BME280;33067;49.296;14.470;2023-03-26T07:06:09;96154.77;;;12.59;36.00
47080;BME280;33067;49.296;14.470;2023-03-26T07:08:34;96151.29;;;13.30;34.63
47080;BME280;33067;49.296;14.470;2023-03-26T07:11:00;96156.65;;;12.79;35.04
47080;BME280;33067;49.296;14.470;2023-03-26T07:13:25;96154.32;;;13.32;34.59
47080;BME280;33067;49.296;14.470;2023-03-26T07:15:51;96154.95;;;13.37;33.88
47080;BME280;33067;49.296;14.470;2023-03-26T07:18:16;96150.57;;;13.78;33.32
47080;BME280;33067;49.296;14.470;2023-03-26T07:20:43;96150.08;;;13.73;33.46
47080;BME280;33067;49.296;14.470;2023-03-26T07:23:08;96148.39;;;13.95;33.05
47080;BME280;33067;49.296;14.470;2023-03-26T07:25:32;96145.72;;;14.46;32.90
47080;BME280;33067;49.296;14.470;2023-03-26T07:28:04;96148.39;;;14.48;31.71
47080;BME280;33067;49.296;14.470;2023-03-26T07:30:26;96148.96;;;14.52;31.51
47080;BME280;33067;49.296;14.470;2023-03-26T07:32:51;96147.20;;;14.24;32.13
47080;BME280;33067;49.296;14.470;2023-03-26T07:35:18;96141.67;;;14.18;32.06
47080;BME280;33067;49.296;14.470;2023-03-26T07:37:46;96134.14;;;14.80;30.81
47080;BME280;33067;49.296;14.470;2023-03-26T07:40:10;96127.07;;;13.65;32.56
47080;BME280;33067;49.296;14.470;2023-03-26T07:42:43;96121.75;;;13.23;32.86
47080;BME280;33067;49.296;14.470;2023-03-26T07:44:59;96114.24;;;14.05;32.07
47080;BME280;33067;49.296;14.470;2023-03-26T07:47:23;96112.33;;;12.61;32.78
47080;BME280;33067;49.296;14.470;2023-03-26T07:49:44;96109.51;;;14.25;31.55
47080;BME280;33067;49.296;14.470;2023-03-26T07:52:10;96105.15;;;14.00;31.51
47080;BME280;33067;49.296;14.470;2023-03-26T07:54:35;96108.63;;;13.91;31.81
47080;BME280;33067;49.296;14.470;2023-03-26T07:57:04;96112.07;;;14.24;31.91
47080;BME280;33067;49.296;14.470;2023-03-26T07:59:30;96108.23;;;13.36;32.19
47080;BME280;33067;49.296;14.470;2023-03-26T08:02:00;96102.61;;;14.39;31.29
47080;BME280;33067;49.296;14.470;2023-03-26T08:04:36;96101.57;;;14.61;30.77
47080;BME280;33067;49.296;14.470;2023-03-26T08:06:47;96090.62;;;14.06;30.75
47080;BME280;33067;49.296;14.470;2023-03-26T08:09:12;96086.85;;;14.82;29.95
47080;BME280;33067;49.296;14.470;2023-03-26T08:11:41;96077.89;;;14.83;30.25
47080;BME280;33067;49.296;14.470;2023-03-26T08:14:05;96078.15;;;14.04;30.86
47080;BME280;33067;49.296;14.470;2023-03-26T08:16:27;96073.31;;;14.30;30.78
47080;BME280;33067;49.296;14.470;2023-03-26T08:18:53;96071.99;;;14.47;30.17
47080;BME280;33067;49.296;14.470;2023-03-26T08:21:16;96063.72;;;15.06;29.52
47080;BME280;33067;49.296;14.470;2023-03-26T08:23:44;96057.84;;;14.52;30.36
47080;BME280;33067;49.296;14.470;2023-03-26T08:26:06;96054.98;;;14.68;30.59
47080;BME280;33067;49.296;14.470;2023-03-26T08:28:36;96043.00;;;13.95;30.87
47080;BME280;33067;49.296;14.470;2023-03-26T08:30:53;96044.55;;;13.75;31.00
47080;BME280;33067;49.296;14.470;2023-03-26T08:33:19;96037.87;;;13.99;30.27
47080;BME280;33067;49.296;14.470;2023-03-26T08:35:45;96037.08;;;13.63;31.57
47080;BME280;33067;49.296;14.470;2023-03-26T08:38:09;96036.44;;;14.18;30.88
47080;BME280;33067;49.296;14.470;2023-03-26T08:43:12;96025.30;;;14.20;30.29
47080;BME280;33067;49.296;14.470;2023-03-26T08:45:37;96021.36;;;14.35;30.25
47080;BME280;33067;49.296;14.470;2023-03-26T08:48:09;96011.17;;;15.23;29.67
47080;BME280;33067;49.296;14.470;2023-03-26T08:50:28;96006.49;;;14.83;29.74
47080;BME280;33067;49.296;14.470;2023-03-26T08:55:20;96004.90;;;15.54;29.59
47080;BME280;33067;49.296;14.470;2023-03-26T09:00:11;96004.83;;;15.29;29.16
47080;BME280;33067;49.296;14.470;2023-03-26T09:02:34;96006.41;;;15.43;28.53
47080;BME280;33067;49.296;14.470;2023-03-26T09:09:52;95992.65;;;15.35;29.02
47080;BME280;33067;49.296;14.470;2023-03-26T09:12:21;95993.73;;;15.57;28.12
47080;BME280;33067;49.296;14.470;2023-03-26T09:17:02;95990.69;;;15.71;28.61
47080;BME280;33067;49.296;14.470;2023-03-26T09:19:31;95988.79;;;15.23;28.72
47080;BME280;33067;49.296;14.470;2023-03-26T09:24:30;95980.14;;;14.36;28.80
47080;BME280;33067;49.296;14.470;2023-03-26T09:26:45;95980.37;;;14.93;28.48
47080;BME280;33067;49.296;14.470;2023-03-26T09:29:24;95980.22;;;14.85;28.55
47080;BME280;33067;49.296;14.470;2023-03-26T09:31:38;95975.48;;;14.66;28.87
47080;BME280;33067;49.296;14.470;2023-03-26T09:33:54;95973.13;;;15.21;28.23
47080;BME280;33067;49.296;14.470;2023-03-26T09:36:19;95965.20;;;14.92;29.05
47080;BME280;33067;49.296;14.470;2023-03-26T09:38:42;95957.93;;;15.57;28.46
47080;BME280;33067;49.296;14.470;2023-03-26T09:41:13;95953.85;;;15.33;28.43
47080;BME280;33067;49.296;14.470;2023-03-26T09:43:43;95953.36;;;15.46;28.02
47080;BME280;33067;49.296;14.470;2023-03-26T09:46:06;95948.55;;;15.82;27.85
47080;BME280;33067;49.296;14.470;2023-03-26T09:48:34;95945.15;;;15.07;28.78
47080;BME280;33067;49.296;14.470;2023-03-26T09:50:56;95948.68;;;15.42;28.49
47080;BME280;33067;49.296;14.470;2023-03-26T09:53:28;95943.40;;;15.19;28.70
47080;BME280;33067;49.296;14.470;2023-03-26T09:55:48;95940.77;;;15.52;28.57
47080;BME280;33067;49.296;14.470;2023-03-26T09:58:17;95934.37;;;15.58;28.13
47080;BME280;33067;49.296;14.470;2023-03-26T10:00:32;95933.55;;;15.55;28.05
47080;BME280;33067;49.296;14.470;2023-03-26T10:03:09;95928.84;;;15.76;28.03
47080;BME280;33067;49.296;14.470;2023-03-26T10:05:26;95921.27;;;15.54;28.32
47080;BME280;33067;49.296;14.470;2023-03-26T10:07:57;95922.53;;;15.34;28.47
47080;BME280;33067;49.296;14.470;2023-03-26T10:10:18;95918.15;;;15.35;27.94
47080;BME280;33067;49.296;14.470;2023-03-26T10:12:39;95920.08;;;15.71;27.60
47080;BME280;33067;49.296;14.470;2023-03-26T10:15:12;95918.44;;;15.51;27.92
47080;BME280;33067;49.296;14.470;2023-03-26T10:17:37;95914.19;;;15.67;27.02
47080;BME280;33067;49.296;14.470;2023-03-26T10:20:02;95903.49;;;15.93;26.74
47080;BME280;33067;49.296;14.470;2023-03-26T10:22:29;95897.28;;;15.98;26.44
47080;BME280;33067;49.296;14.470;2023-03-26T10:27:22;95888.02;;;15.71;26.11
47080;BME280;33067;49.296;14.470;2023-03-26T10:29:48;95886.82;;;15.51;26.14
47080;BME280;33067;49.296;14.470;2023-03-26T10:32:08;95887.30;;;15.68;26.67
47080;BME280;33067;49.296;14.470;2023-03-26T10:36:55;95875.64;;;15.72;26.53
47080;BME280;33067;49.296;14.470;2023-03-26T10:39:28;95871.11;;;16.17;26.07
47080;BME280;33067;49.296;14.470;2023-03-26T10:41:48;95864.68;;;16.07;25.54
47080;BME280;33067;49.296;14.470;2023-03-26T10:44:15;95866.64;;;15.90;26.00
47080;BME280;33067;49.296;14.470;2023-03-26T10:46:41;95861.62;;;16.30;25.94
47080;BME280;33067;49.296;14.470;2023-03-26T10:51:35;95850.56;;;16.26;26.39
47080;BME280;33067;49.296;14.470;2023-03-26T10:53:48;95841.61;;;15.55;25.73
47080;BME280;33067;49.296;14.470;2023-03-26T10:56:18;95843.51;;;15.44;26.74
47080;BME280;33067;49.296;14.470;2023-03-26T10:58:37;95842.70;;;15.52;26.90
47080;BME280;33067;49.296;14.470;2023-03-26T11:01:04;95841.84;;;15.68;27.29
47080;BME280;33067;49.296;14.470;2023-03-26T11:03:39;95837.47;;;15.64;26.73
47080;BME280;33067;49.296;14.470;2023-03-26T11:05:59;95837.91;;;15.54;26.68
47080;BME280;33067;49.296;14.470;2023-03-26T11:08:23;95841.23;;;15.56;26.73
47080;BME280;33067;49.296;14.470;2023-03-26T11:10:49;95839.64;;;15.61;26.50
47080;BME280;33067;49.296;14.470;2023-03-26T11:13:17;95834.09;;;15.68;26.66
47080;BME280;33067;49.296;14.470;2023-03-26T11:15:38;95829.95;;;15.70;26.76
47080;BME280;33067;49.296;14.470;2023-03-26T11:18:06;95824.15;;;15.52;26.73
47080;BME280;33067;49.296;14.470;2023-03-26T11:20:31;95820.52;;;15.66;27.01
47080;BME280;33067;49.296;14.470;2023-03-26T11:22:59;95819.80;;;15.47;27.13
47080;BME280;33067;49.296;14.470;2023-03-26T11:25:25;95818.17;;;15.38;27.01
47080;BME280;33067;49.296;14.470;2023-03-26T11:27:50;95814.92;;;15.60;27.64
47080;BME280;33067;49.296;14.470;2023-03-26T11:30:16;95809.36;;;15.81;27.56
47080;BME280;33067;49.296;14.470;2023-03-26T11:32:38;95802.76;;;15.90;27.69
47080;BME280;33067;49.296;14.470;2023-03-26T11:35:00;95802.97;;;15.81;27.39
47080;BME280;33067;49.296;14.470;2023-03-26T11:37:28;95805.65;;;15.85;27.85
47080;BME280;33067;49.296;14.470;2023-03-26T11:39:49;95811.04;;;15.59;27.68
47080;BME280;33067;49.296;14.470;2023-03-26T11:42:13;95811.92;;;15.69;27.54
47080;BME280;33067;49.296;14.470;2023-03-26T11:44:39;95814.56;;;15.89;27.65
47080;BME280;33067;49.296;14.470;2023-03-26T11:47:08;95807.87;;;15.82;27.44
47080;BME280;33067;49.296;14.470;2023-03-26T11:49:28;95803.55;;;15.37;27.82
47080;BME280;33067;49.296;14.470;2023-03-26T11:51:52;95805.81;;;15.87;27.87
47080;BME280;33067;49.296;14.470;2023-03-26T11:54:18;95800.85;;;15.29;28.59
47080;BME280;33067;49.296;14.470;2023-03-26T11:56:46;95796.09;;;15.38;28.25
47080;BME280;33067;49.296;14.470;2023-03-26T11:59:13;95795.52;;;15.70;28.20
47080;BME280;33067;49.296;14.470;2023-03-26T12:01:48;95787.72;;;15.80;28.04
47080;BME280;33067;49.296;14.470;2023-03-26T12:04:04;95786.54;;;15.56;28.48
47080;BME280;33067;49.296;14.470;2023-03-26T12:06:26;95790.74;;;15.47;28.06
47080;BME280;33067;49.296;14.470;2023-03-26T12:08:51;95787.97;;;15.32;28.35
47080;BME280;33067;49.296;14.470;2023-03-26T12:11:17;95790.16;;;15.21;28.54
47080;BME280;33067;49.296;14.470;2023-03-26T12:13:47;95789.96;;;15.29;28.68
47080;BME280;33067;49.296;14.470;2023-03-26T12:16:11;95791.67;;;15.27;28.92
47080;BME280;33067;49.296;14.470;2023-03-26T12:18:33;95787.36;;;15.21;28.87
47080;BME280;33067;49.296;14.470;2023-03-26T12:21:03;95783.60;;;14.65;29.83
47080;BME280;33067;49.296;14.470;2023-03-26T12:23:34;95776.30;;;14.90;29.58
47080;BME280;33067;49.296;14.470;2023-03-26T12:28:18;95780.40;;;15.14;30.87
47080;BME280;33067;49.296;14.470;2023-03-26T12:30:41;95788.05;;;15.07;31.58
47080;BME280;33067;49.296;14.470;2023-03-26T12:33:06;95788.74;;;14.97;31.72
47080;BME280;33067;49.296;14.470;2023-03-26T12:35:31;95788.39;;;15.22;31.80
47080;BME280;33067;49.296;14.470;2023-03-26T12:40:29;95786.06;;;15.21;32.34
47080;BME280;33067;49.296;14.470;2023-03-26T12:42:52;95785.75;;;15.37;31.38
47080;BME280;33067;49.296;14.470;2023-03-26T12:45:12;95793.07;;;14.93;32.44
47080;BME280;33067;49.296;14.470;2023-03-26T12:47:37;95791.83;;;14.72;32.85
47080;BME280;33067;49.296;14.470;2023-03-26T12:50:04;95791.89;;;15.07;33.18
47080;BME280;33067;49.296;14.470;2023-03-26T12:52:43;95790.23;;;14.65;33.47
47080;BME280;33067;49.296;14.470;2023-03-26T12:54:59;95792.33;;;14.70;33.38
47080;BME280;33067;49.296;14.470;2023-03-26T12:57:21;95790.42;;;14.82;33.71
47080;BME280;33067;49.296;14.470;2023-03-26T12:59:52;95790.59;;;14.55;34.06
47080;BME280;33067;49.296;14.470;2023-03-26T13:02:26;95791.31;;;14.30;34.46
47080;BME280;33067;49.296;14.470;2023-03-26T13:04:44;95786.38;;;14.19;34.62
47080;BME280;33067;49.296;14.470;2023-03-26T13:07:07;95785.12;;;14.47;34.18
47080;BME280;33067;49.296;14.470;2023-03-26T13:09:40;95785.48;;;14.45;34.43